createdAt,value
2019-04-11T00:01:48.556Z,99.90
2019-04-11T00:04:35.762Z,99.90
2019-04-11T00:07:24.584Z,99.90
2019-04-11T00:10:14.410Z,99.90
2019-04-11T00:13:15.121Z,99.90
2019-04-11T00:15:51.408Z,99.90
2019-04-11T00:18:39.166Z,99.90
2019-04-11T00:21:26.840Z,99.90
2019-04-11T00:24:14.601Z,99.90
2019-04-11T00:27:02.503Z,99.90
2019-04-11T00:29:51.425Z,99.90
2019-04-11T00:32:39.524Z,99.90
2019-04-11T00:35:27.923Z,99.90
2019-04-11T00:38:16.029Z,99.90
2019-04-11T00:41:04.208Z,99.90
2019-04-11T00:43:52.576Z,99.90
2019-04-11T00:46:40.506Z,99.90
2019-04-11T00:49:28.348Z,99.90
2019-04-11T00:52:16.290Z,99.90
2019-04-11T00:55:05.069Z,99.90
2019-04-11T00:57:53.076Z,99.90
2019-04-11T01:00:41.602Z,99.90
2019-04-11T01:03:30.495Z,99.90
2019-04-11T01:06:18.749Z,99.90
2019-04-11T01:09:06.738Z,99.90
2019-04-11T01:11:54.460Z,99.90
2019-04-11T01:14:42.722Z,99.90
2019-04-11T01:17:31.576Z,99.90
2019-04-11T01:20:19.565Z,99.90
2019-04-11T01:23:08.927Z,99.90
2019-04-11T01:25:57.051Z,99.90
2019-04-11T01:28:45.244Z,99.90
2019-04-11T01:31:35.800Z,99.90
2019-04-11T01:34:24.522Z,99.90
2019-04-11T01:37:12.443Z,99.90
2019-04-11T01:40:01.602Z,99.90
2019-04-11T01:42:49.565Z,99.90
2019-04-11T01:45:37.871Z,99.90
2019-04-11T01:48:27.891Z,99.90
2019-04-11T01:51:15.823Z,99.90
2019-04-11T01:54:03.678Z,99.90
2019-04-11T01:56:51.611Z,99.90
2019-04-11T01:59:39.803Z,99.90
2019-04-11T02:02:44.433Z,99.90
2019-04-11T02:05:33.488Z,99.90
2019-04-11T02:08:21.396Z,99.90
2019-04-11T02:11:09.686Z,99.90
2019-04-11T02:14:09.898Z,99.90
2019-04-11T02:16:47.446Z,99.90
2019-04-11T02:19:36.302Z,99.90
2019-04-11T02:22:26.382Z,99.90
2019-04-11T02:25:16.475Z,99.90
2019-04-11T02:28:06.577Z,99.90
2019-04-11T02:30:56.644Z,99.90
2019-04-11T02:33:44.287Z,99.90
2019-04-11T02:36:33.740Z,99.90
2019-04-11T02:39:22.928Z,99.90
2019-04-11T02:42:12.230Z,99.90
2019-04-11T02:45:16.505Z,99.90
2019-04-11T02:47:51.725Z,99.90
2019-04-11T02:50:41.472Z,99.90
2019-04-11T02:53:32.058Z,99.90
2019-04-11T02:56:21.304Z,99.90
2019-04-11T02:59:09.405Z,99.90
2019-04-11T03:01:58.193Z,99.90
2019-04-11T03:04:47.962Z,99.90
2019-04-11T03:07:36.115Z,99.90
2019-04-11T03:10:24.865Z,99.90
2019-04-11T03:13:12.786Z,99.90
2019-04-11T03:16:17.207Z,99.90
2019-04-11T03:19:08.462Z,99.90
2019-04-11T03:21:43.877Z,99.90
2019-04-11T03:24:31.595Z,99.90
2019-04-11T03:27:20.039Z,99.90
2019-04-11T03:30:15.062Z,99.90
2019-04-11T03:37:01.182Z,99.90
2019-04-11T03:39:00.386Z,99.90
2019-04-11T03:41:46.468Z,99.90
2019-04-11T03:44:25.499Z,99.90
2019-04-11T03:47:23.687Z,99.90
2019-04-11T03:50:06.147Z,99.90
2019-04-11T03:52:49.650Z,99.90
2019-04-11T03:55:39.093Z,99.90
2019-04-11T03:58:29.223Z,99.90
2019-04-11T04:01:18.414Z,99.90
2019-04-11T04:04:09.125Z,99.90
2019-04-11T04:06:58.292Z,99.90
2019-04-11T04:09:46.691Z,99.90
2019-04-11T04:12:35.729Z,99.90
2019-04-11T04:15:47.154Z,99.90
2019-04-11T04:18:27.707Z,99.90
2019-04-11T04:21:30.985Z,99.90
2019-04-11T04:24:34.239Z,99.90
2019-04-11T04:27:23.261Z,99.90
2019-04-11T04:30:11.383Z,99.90
2019-04-11T04:33:00.601Z,99.90
2019-04-11T04:35:49.665Z,99.90
2019-04-11T04:38:39.543Z,99.90
2019-04-11T04:41:38.508Z,99.90
2019-04-11T04:44:22.273Z,99.90
2019-04-11T04:47:21.002Z,99.90
2019-04-11T04:50:01.343Z,99.90
2019-04-11T04:52:51.407Z,99.90
2019-04-11T04:55:41.093Z,99.90
2019-04-11T04:58:29.399Z,99.90
2019-04-11T05:01:19.095Z,99.90
2019-04-11T05:04:08.939Z,99.90
2019-04-11T05:06:56.777Z,99.90
2019-04-11T05:09:45.951Z,99.90
2019-04-11T05:12:34.574Z,99.90
2019-04-11T05:15:24.244Z,99.90
2019-04-11T05:18:14.819Z,99.90
2019-04-11T05:21:01.746Z,99.90
2019-04-11T05:24:23.066Z,99.90
2019-04-11T05:27:10.749Z,99.90
2019-04-11T05:29:58.633Z,99.90
2019-04-11T05:32:47.214Z,99.90
2019-04-11T05:35:36.229Z,99.90
2019-04-11T05:38:25.254Z,99.90
2019-04-11T05:41:13.844Z,99.90
2019-04-11T05:44:03.481Z,99.90
2019-04-11T05:46:56.293Z,99.90
2019-04-11T05:49:45.117Z,99.90
2019-04-11T05:52:35.160Z,99.90
2019-04-11T05:55:23.870Z,99.90
2019-04-11T05:58:14.216Z,99.90
2019-04-11T06:01:03.614Z,99.90
2019-04-11T06:03:53.667Z,99.90
2019-04-11T06:06:46.568Z,99.90
2019-04-11T06:09:38.194Z,99.90
2019-04-11T06:12:41.583Z,99.90
2019-04-11T06:15:31.274Z,99.90
2019-04-11T06:18:27.865Z,99.90
2019-04-11T06:21:12.310Z,99.90
2019-04-11T06:24:18.581Z,99.90
2019-04-11T06:30:01.309Z,99.90
2019-04-11T06:33:07.978Z,99.90
2019-04-11T06:36:16.130Z,99.90
2019-04-11T06:39:17.113Z,99.90
2019-04-11T06:42:19.182Z,99.90
2019-04-11T06:45:21.800Z,99.90
2019-04-11T06:48:17.825Z,99.90
2019-04-11T06:51:08.043Z,99.90
2019-04-11T06:54:01.255Z,99.90
2019-04-11T06:56:52.086Z,99.90
2019-04-11T06:59:44.947Z,99.90
2019-04-11T07:02:34.915Z,99.90
2019-04-11T07:05:24.906Z,99.90
2019-04-11T07:08:13.621Z,99.90
2019-04-11T07:11:03.357Z,99.90
2019-04-11T07:13:53.299Z,99.90
2019-04-11T07:17:05.700Z,99.90
2019-04-11T07:19:57.289Z,99.90
2019-04-11T07:23:03.765Z,99.90
2019-04-11T07:25:53.886Z,99.90
2019-04-11T07:28:43.944Z,99.90
2019-04-11T07:31:33.787Z,99.90
2019-04-11T07:34:40.037Z,99.90
2019-04-11T07:37:34.480Z,99.90
2019-04-11T07:40:31.447Z,99.90
2019-04-11T07:43:19.929Z,99.90
2019-04-11T07:46:25.553Z,99.90
2019-04-11T07:49:16.120Z,99.90
2019-04-11T07:52:08.952Z,99.90
2019-04-11T07:54:56.966Z,99.90
2019-04-11T07:57:49.316Z,99.90
2019-04-11T08:00:44.815Z,99.90
2019-04-11T08:03:41.878Z,99.90
2019-04-11T08:06:34.109Z,99.90
2019-04-11T08:09:38.086Z,99.90
2019-04-11T08:12:27.894Z,99.90
2019-04-11T08:15:35.816Z,99.90
2019-04-11T08:18:43.131Z,99.90
2019-04-11T08:21:50.409Z,99.90
2019-04-11T08:24:54.842Z,99.90
2019-04-11T08:28:00.742Z,99.90
2019-04-11T08:30:48.811Z,99.90
2019-04-11T08:33:36.598Z,99.90
2019-04-11T08:36:38.015Z,99.90
2019-04-11T08:39:26.314Z,99.90
2019-04-11T08:42:21.341Z,99.90
2019-04-11T08:45:12.326Z,99.90
2019-04-11T08:48:02.529Z,99.90
2019-04-11T08:50:52.534Z,99.90
2019-04-11T08:53:45.068Z,99.90
2019-04-11T08:56:32.723Z,99.90
2019-04-11T08:59:33.797Z,99.40
2019-04-11T09:02:21.829Z,99.70
2019-04-11T09:05:29.044Z,99.90
2019-04-11T09:08:18.559Z,99.80
2019-04-11T09:11:16.996Z,99.10
2019-04-11T09:14:15.759Z,99.80
2019-04-11T09:17:12.314Z,98.90
2019-04-11T09:20:01.916Z,99.60
2019-04-11T09:22:51.622Z,98.90
2019-04-11T09:25:57.231Z,99.30
2019-04-11T09:28:45.911Z,99.20
2019-04-11T09:31:35.908Z,98.10
2019-04-11T09:34:28.155Z,98.10
2019-04-11T09:37:18.463Z,99.60
2019-04-11T09:40:26.325Z,97.70
2019-04-11T09:43:17.934Z,97.90
2019-04-11T09:46:22.224Z,96.70
2019-04-11T09:49:13.429Z,96.70
2019-04-11T09:52:07.244Z,96.60
2019-04-11T09:55:12.900Z,96.30
2019-04-11T09:58:02.813Z,95.40
2019-04-11T10:01:10.228Z,95.30
2019-04-11T10:04:12.430Z,93.70
2019-04-11T10:07:19.615Z,93.80
2019-04-11T10:10:15.313Z,93.50
2019-04-11T10:13:16.879Z,93.80
2019-04-11T10:16:19.875Z,92.50
2019-04-11T10:19:09.790Z,92.20
2019-04-11T10:22:18.576Z,91.50
2019-04-11T10:25:08.893Z,91.60
2019-04-11T10:28:07.401Z,91.30
2019-04-11T10:31:08.866Z,91.50
2019-04-11T10:33:59.419Z,91.20
2019-04-11T10:36:49.595Z,91.20
2019-04-11T10:39:45.753Z,90.90
2019-04-11T10:42:34.739Z,91.60
2019-04-11T10:45:34.398Z,92.10
2019-04-11T10:48:36.915Z,90.70
2019-04-11T10:51:31.705Z,84.60
2019-04-11T10:54:19.916Z,85.90
2019-04-11T10:57:12.576Z,84.00
2019-04-11T11:00:03.131Z,82.40
2019-04-11T11:03:05.929Z,83.30
2019-04-11T11:05:55.745Z,82.90
2019-04-11T11:08:45.844Z,83.50
2019-04-11T11:11:36.543Z,79.40
2019-04-11T11:14:36.562Z,82.10
2019-04-11T11:17:47.191Z,81.80
2019-04-11T11:20:38.579Z,82.00
2019-04-11T11:23:22.831Z,83.00
2019-04-11T11:26:19.787Z,82.50
2019-04-11T11:29:21.558Z,77.90
2019-04-11T11:32:11.347Z,78.90
2019-04-11T11:35:01.192Z,80.60
2019-04-11T11:37:49.490Z,74.40
2019-04-11T11:40:48.644Z,75.10
2019-04-11T11:43:37.083Z,75.40
2019-04-11T11:46:29.732Z,74.40
2019-04-11T11:49:29.826Z,73.90
2019-04-11T11:52:17.201Z,71.70
2019-04-11T11:55:12.356Z,71.90
2019-04-11T11:58:19.802Z,73.50
2019-04-11T12:04:17.296Z,71.00
2019-04-11T12:07:07.525Z,69.70
2019-04-11T12:10:15.216Z,69.40
2019-04-11T12:13:17.268Z,67.80
2019-04-11T12:16:07.888Z,68.20
2019-04-11T12:19:06.806Z,66.40
2019-04-11T12:21:56.738Z,66.70
2019-04-11T12:24:50.198Z,66.90
2019-04-11T12:27:49.944Z,66.10
2019-04-11T12:30:42.532Z,64.00
2019-04-11T12:33:35.381Z,64.00
2019-04-11T12:36:26.369Z,63.50
2019-04-11T12:39:25.441Z,65.50
2019-04-11T12:42:26.845Z,63.70
2019-04-11T12:45:34.735Z,64.10
2019-04-11T12:48:23.761Z,63.10
2019-04-11T12:51:29.378Z,61.30
2019-04-11T12:54:19.263Z,61.50
2019-04-11T12:57:20.362Z,60.20
2019-04-11T13:00:19.746Z,60.00
2019-04-11T13:03:09.193Z,60.00
2019-04-11T13:06:01.900Z,60.70
2019-04-11T13:09:09.226Z,59.10
2019-04-11T13:11:58.752Z,58.00
2019-04-11T13:14:51.140Z,60.20
2019-04-11T13:17:52.394Z,58.10
2019-04-11T13:20:48.133Z,57.10
2019-04-11T13:23:43.528Z,56.90
2019-04-11T13:26:41.765Z,56.40
2019-04-11T13:32:41.767Z,56.90
2019-04-11T13:35:31.614Z,57.00
2019-04-11T13:38:21.037Z,56.10
2019-04-11T13:41:27.058Z,54.90
2019-04-11T13:44:17.682Z,54.60
2019-04-11T13:52:52.186Z,53.90
2019-04-11T13:55:42.082Z,54.50
2019-04-11T13:58:32.140Z,54.70
2019-04-11T14:01:20.049Z,52.60
2019-04-11T14:04:15.587Z,53.20
2019-04-11T14:07:03.270Z,53.40
2019-04-11T14:09:55.343Z,53.00
2019-04-11T14:13:03.443Z,52.40
2019-04-11T14:15:54.486Z,52.70
2019-04-11T14:18:47.429Z,51.80
2019-04-11T14:21:35.696Z,52.50
2019-04-11T14:24:42.388Z,52.60
2019-04-11T14:27:31.076Z,51.40
2019-04-11T14:30:52.445Z,51.80
2019-04-11T14:33:56.869Z,51.80
2019-04-11T14:37:03.356Z,51.60
2019-04-11T14:39:53.488Z,51.90
2019-04-11T14:42:59.581Z,51.30
2019-04-11T14:45:51.820Z,51.80
2019-04-11T14:48:47.242Z,51.60
2019-04-11T14:51:53.377Z,52.10
2019-04-11T14:54:43.231Z,51.90
2019-04-11T14:57:48.193Z,52.30
2019-04-11T15:00:37.490Z,52.40
2019-04-11T15:03:26.878Z,50.40
2019-04-11T15:06:19.429Z,50.20
2019-04-11T15:09:09.578Z,50.70
2019-04-11T15:11:59.365Z,50.90
2019-04-11T15:14:58.022Z,51.20
2019-04-11T15:17:45.903Z,55.40
2019-04-11T15:20:35.612Z,51.50
2019-04-11T15:23:25.120Z,50.20
2019-04-11T15:26:23.859Z,50.50
2019-04-11T15:29:13.831Z,51.00
2019-04-11T15:32:09.733Z,50.80
2019-04-11T15:34:57.445Z,50.00
2019-04-11T15:38:03.218Z,50.90
2019-04-11T15:40:52.850Z,50.80
2019-04-11T15:43:58.878Z,50.50
2019-04-11T15:46:47.862Z,50.90
2019-04-11T15:49:37.542Z,51.20
2019-04-11T15:52:25.642Z,51.20
2019-04-11T15:55:14.894Z,51.70
2019-04-11T15:58:02.777Z,51.20
2019-04-11T16:00:57.993Z,51.60
2019-04-11T16:03:45.513Z,52.10
2019-04-11T16:06:39.072Z,51.80
2019-04-11T16:09:26.989Z,51.70
2019-04-11T16:12:19.406Z,50.40
2019-04-11T16:15:09.023Z,50.90
2019-04-11T16:18:16.014Z,50.50
2019-04-11T16:21:17.979Z,50.70
2019-04-11T16:23:57.726Z,50.80
2019-04-11T16:26:47.266Z,51.70
2019-04-11T16:29:38.705Z,50.40
2019-04-11T16:32:27.818Z,51.00
2019-04-11T16:35:23.830Z,51.50
2019-04-11T16:38:18.736Z,51.40
2019-04-11T16:41:23.972Z,52.60
2019-04-11T16:44:18.379Z,51.80
2019-04-11T16:47:10.360Z,52.20
2019-04-11T16:49:58.411Z,53.50
2019-04-11T16:52:46.291Z,53.50
2019-04-11T16:55:36.648Z,54.20
2019-04-11T16:58:23.737Z,53.40
2019-04-11T17:01:11.566Z,52.60
2019-04-11T17:03:59.429Z,53.20
2019-04-11T17:06:48.849Z,53.20
2019-04-11T17:09:38.495Z,54.20
2019-04-11T17:12:26.778Z,54.90
2019-04-11T17:15:15.060Z,54.80
2019-04-11T17:18:03.256Z,54.80
2019-04-11T17:20:50.978Z,54.60
2019-04-11T17:23:38.577Z,54.60
2019-04-11T17:26:26.284Z,55.10
2019-04-11T17:29:14.150Z,54.70
2019-04-11T17:32:01.957Z,54.50
2019-04-11T17:34:49.657Z,55.60
2019-04-11T17:37:37.463Z,55.70
2019-04-11T17:40:25.402Z,55.80
2019-04-11T17:43:13.891Z,55.80
2019-04-11T17:46:02.355Z,56.90
2019-04-11T17:48:50.611Z,57.20
2019-04-11T17:51:38.345Z,57.40
2019-04-11T17:54:26.046Z,56.90
2019-04-11T17:57:13.598Z,57.50
2019-04-11T18:00:01.461Z,57.50
2019-04-11T18:02:49.179Z,57.60
2019-04-11T18:05:37.917Z,57.90
2019-04-11T18:08:25.709Z,57.90
2019-04-11T18:11:13.492Z,57.40
2019-04-11T18:14:01.571Z,58.00
2019-04-11T18:16:49.214Z,58.20
2019-04-11T18:19:37.133Z,57.60
2019-04-11T18:22:24.955Z,58.30
2019-04-11T18:25:13.044Z,58.40
2019-04-11T18:28:01.077Z,58.40
2019-04-11T18:30:49.168Z,58.60
2019-04-11T18:33:37.312Z,58.70
2019-04-11T18:36:25.581Z,59.30
2019-04-11T18:39:13.525Z,59.20
2019-04-11T18:42:01.141Z,59.50
2019-04-11T18:44:49.261Z,59.50
2019-04-11T18:47:36.843Z,59.40
2019-04-11T18:50:25.049Z,59.00
2019-04-11T18:53:13.233Z,58.90
2019-04-11T18:56:01.759Z,59.80
2019-04-11T18:58:49.457Z,59.90
2019-04-11T19:01:39.849Z,60.00
2019-04-11T19:04:32.275Z,60.20
2019-04-11T19:07:27.138Z,60.40
2019-04-11T19:10:07.227Z,60.30
2019-04-11T19:12:54.717Z,60.00
2019-04-11T19:15:45.512Z,60.50
2019-04-11T19:18:32.146Z,60.80
2019-04-11T19:21:21.188Z,60.60
2019-04-11T19:24:12.828Z,61.20
2019-04-11T19:26:59.256Z,61.80
2019-04-11T19:29:48.503Z,62.10
2019-04-11T19:32:36.302Z,62.70
2019-04-11T19:35:23.977Z,62.70
2019-04-11T19:38:25.478Z,63.10
2019-04-11T19:41:17.304Z,63.10
2019-04-11T19:44:04.014Z,63.60
2019-04-11T19:46:52.078Z,63.90
2019-04-11T19:49:39.921Z,64.30
2019-04-11T19:52:29.929Z,64.80
2019-04-11T19:55:35.216Z,65.70
2019-04-11T19:58:27.674Z,66.70
2019-04-11T20:01:15.689Z,68.20
2019-04-11T20:04:03.676Z,68.80
2019-04-11T20:06:51.959Z,68.60
2019-04-11T20:09:39.988Z,69.90
2019-04-11T20:12:30.058Z,71.40
2019-04-11T20:15:18.788Z,74.40
2019-04-11T20:18:06.957Z,77.00
2019-04-11T20:20:55.603Z,79.10
2019-04-11T20:23:43.438Z,79.30
2019-04-11T20:26:31.081Z,79.50
2019-04-11T20:29:21.452Z,82.30
2019-04-11T20:32:09.301Z,78.40
2019-04-11T20:34:58.805Z,79.10
2019-04-11T20:37:46.757Z,78.60
2019-04-11T20:40:34.921Z,78.50
2019-04-11T20:43:25.516Z,77.30
2019-04-11T20:46:13.046Z,76.70
2019-04-11T20:49:01.009Z,77.10
2019-04-11T20:51:48.968Z,76.90
2019-04-11T20:54:38.523Z,77.50
2019-04-11T20:57:26.470Z,78.60
2019-04-11T21:00:15.100Z,80.10
2019-04-11T21:03:02.886Z,80.20
2019-04-11T21:05:50.602Z,84.40
2019-04-11T21:08:38.450Z,91.80
2019-04-11T21:11:26.267Z,89.60
2019-04-11T21:14:14.026Z,90.60
2019-04-11T21:17:01.736Z,90.20
2019-04-11T21:19:51.005Z,90.70
2019-04-11T21:22:39.466Z,90.20
2019-04-11T21:25:28.590Z,88.60
2019-04-11T21:28:16.370Z,89.00
2019-04-11T21:31:04.167Z,88.30
2019-04-11T21:33:52.162Z,88.00
2019-04-11T21:36:40.133Z,88.20
2019-04-11T21:39:27.978Z,89.50
2019-04-11T21:42:15.878Z,89.50
2019-04-11T21:45:06.303Z,90.00
2019-04-11T21:47:54.606Z,90.00
2019-04-11T21:50:42.313Z,90.50
2019-04-11T21:53:36.549Z,90.90
2019-04-11T21:56:19.454Z,91.20
2019-04-11T21:59:07.489Z,91.80
2019-04-11T22:01:55.332Z,92.60
2019-04-11T22:04:42.878Z,93.40
2019-04-11T22:07:31.575Z,93.80
2019-04-11T22:10:19.698Z,94.50
2019-04-11T22:13:09.857Z,94.90
2019-04-11T22:15:57.310Z,95.00
2019-04-11T22:18:45.013Z,95.70
2019-04-11T22:21:33.008Z,95.70
2019-04-11T22:24:20.982Z,96.00
2019-04-11T22:27:08.917Z,96.40
2019-04-11T22:29:56.818Z,96.70
2019-04-11T22:32:46.458Z,97.60
2019-04-11T22:35:34.450Z,97.80
2019-04-11T22:38:22.046Z,98.10
2019-04-11T22:41:09.677Z,98.50
2019-04-11T22:43:57.700Z,98.80
2019-04-11T22:46:45.737Z,99.30
2019-04-11T22:49:33.685Z,99.20
2019-04-11T22:52:21.462Z,99.30
2019-04-11T22:55:11.271Z,99.40
2019-04-11T22:57:59.141Z,99.90
2019-04-11T23:00:47.243Z,99.90
2019-04-11T23:03:36.733Z,99.90
2019-04-11T23:06:24.398Z,99.90
2019-04-11T23:09:12.054Z,99.90
2019-04-11T23:11:59.812Z,99.90
2019-04-11T23:14:47.726Z,99.90
2019-04-11T23:17:37.944Z,99.90
2019-04-11T23:20:24.989Z,99.90
2019-04-11T23:23:13.384Z,99.90
2019-04-11T23:26:01.993Z,99.90
2019-04-11T23:28:49.780Z,99.90
2019-04-11T23:31:37.875Z,99.90
2019-04-11T23:34:25.671Z,99.90
2019-04-11T23:37:13.308Z,99.90
2019-04-11T23:40:01.134Z,99.90
2019-04-11T23:42:50.138Z,99.90
2019-04-11T23:45:38.581Z,99.90
2019-04-11T23:48:26.255Z,99.90
2019-04-11T23:51:13.781Z,99.90
2019-04-11T23:54:01.485Z,99.90
2019-04-11T23:56:49.437Z,99.90
2019-04-11T23:59:37.169Z,99.90
